createdAt,value
2022-11-24T00:01:36.133Z,14.60
2022-11-24T00:04:06.195Z,16.50
2022-11-24T00:07:57.416Z,13.55
2022-11-24T00:10:12.889Z,15.77
2022-11-24T00:13:19.470Z,15.55
2022-11-24T00:16:20.964Z,18.48
2022-11-24T00:19:40.545Z,24.08
2022-11-24T00:22:22.419Z,19.73
2022-11-24T00:24:51.232Z,22.45
2022-11-24T00:27:49.284Z,17.08
2022-11-24T00:33:45.655Z,13.43
2022-11-24T00:36:15.821Z,16.27
2022-11-24T00:39:11.364Z,14.43
2022-11-24T00:41:39.367Z,16.45
2022-11-24T00:44:07.831Z,13.95
2022-11-24T00:46:36.189Z,18.00
2022-11-24T00:49:04.615Z,23.65
2022-11-24T00:51:32.442Z,20.77
2022-11-24T00:54:01.368Z,19.65
2022-11-24T00:56:30.713Z,15.48
2022-11-24T00:58:59.165Z,18.83
2022-11-24T01:01:29.715Z,13.20
2022-11-24T01:04:01.489Z,16.05
2022-11-24T01:06:30.434Z,18.38
2022-11-24T01:08:58.533Z,11.48
2022-11-24T01:11:54.578Z,12.50
2022-11-24T01:14:24.611Z,10.25
2022-11-24T01:16:53.233Z,15.63
2022-11-24T01:19:21.466Z,12.93
2022-11-24T01:21:50.121Z,12.95
2022-11-24T01:24:18.421Z,13.77
2022-11-24T01:26:46.391Z,14.85
2022-11-24T01:29:14.339Z,14.43
2022-11-24T01:31:42.258Z,14.13
2022-11-24T01:34:10.700Z,11.77
2022-11-24T01:36:39.224Z,14.55
2022-11-24T01:39:07.282Z,14.90
2022-11-24T01:41:35.885Z,11.05
2022-11-24T01:44:30.335Z,15.20
2022-11-24T01:46:59.313Z,12.15
2022-11-24T01:49:49.318Z,10.88
2022-11-24T01:52:27.475Z,13.32
2022-11-24T01:55:05.341Z,18.35
2022-11-24T01:57:38.508Z,10.82
2022-11-24T02:00:10.518Z,13.05
2022-11-24T02:02:43.705Z,15.25
2022-11-24T02:05:24.378Z,17.50
2022-11-24T02:07:56.126Z,18.90
2022-11-24T02:10:24.294Z,14.45
2022-11-24T02:12:55.331Z,23.50
2022-11-24T02:15:23.663Z,15.55
2022-11-24T02:17:51.528Z,16.33
2022-11-24T02:20:19.335Z,15.88
2022-11-24T02:23:14.899Z,14.88
2022-11-24T02:25:56.769Z,20.20
2022-11-24T02:28:29.769Z,14.18
2022-11-24T02:31:00.286Z,12.15
2022-11-24T02:33:28.540Z,14.77
2022-11-24T02:35:56.257Z,14.80
2022-11-24T02:38:34.641Z,15.90
2022-11-24T02:41:13.995Z,16.23
2022-11-24T02:48:03.103Z,20.50
2022-11-24T02:50:30.895Z,16.58
2022-11-24T02:52:58.649Z,15.48
2022-11-24T02:55:26.395Z,15.90
2022-11-24T02:57:54.069Z,17.73
2022-11-24T03:00:22.543Z,14.25
2022-11-24T03:02:50.494Z,14.40
2022-11-24T03:05:18.460Z,13.52
2022-11-24T03:07:46.386Z,16.98
2022-11-24T03:10:14.093Z,15.10
2022-11-24T03:12:41.695Z,16.48
2022-11-24T03:15:09.731Z,21.33
2022-11-24T03:17:37.446Z,11.10
2022-11-24T03:20:05.584Z,15.10
2022-11-24T03:22:33.317Z,19.15
2022-11-24T03:25:01.331Z,22.55
2022-11-24T03:27:30.951Z,14.70
2022-11-24T03:30:01.969Z,19.15
2022-11-24T03:32:31.380Z,17.85
2022-11-24T03:34:59.330Z,16.98
2022-11-24T03:37:27.409Z,17.92
2022-11-24T03:39:56.289Z,18.40
2022-11-24T03:42:24.289Z,15.65
2022-11-24T03:44:52.473Z,17.65
2022-11-24T03:47:23.656Z,16.33
2022-11-24T03:49:51.483Z,14.70
2022-11-24T03:52:59.974Z,15.60
2022-11-24T03:55:38.855Z,14.52
2022-11-24T03:58:06.528Z,21.45
2022-11-24T04:00:34.393Z,17.88
2022-11-24T04:03:02.299Z,18.13
2022-11-24T04:05:30.218Z,20.83
2022-11-24T04:07:58.660Z,17.55
2022-11-24T04:10:26.434Z,16.60
2022-11-24T04:12:54.164Z,16.85
2022-11-24T04:15:22.331Z,19.15
2022-11-24T04:17:50.637Z,19.35
2022-11-24T04:20:18.424Z,19.85
2022-11-24T04:22:46.210Z,15.88
2022-11-24T04:25:13.969Z,17.35
2022-11-24T04:27:41.842Z,18.63
2022-11-24T04:30:10.554Z,18.58
2022-11-24T04:32:38.321Z,11.27
2022-11-24T04:35:08.801Z,13.35
2022-11-24T04:37:36.583Z,20.73
2022-11-24T04:40:05.843Z,37.55
2022-11-24T04:42:33.640Z,29.42
2022-11-24T04:45:01.552Z,21.25
2022-11-24T04:47:30.818Z,20.30
2022-11-24T04:49:58.704Z,19.30
2022-11-24T04:52:26.979Z,15.07
2022-11-24T04:54:54.871Z,20.48
2022-11-24T04:57:29.398Z,19.80
2022-11-24T04:59:59.838Z,18.88
2022-11-24T05:02:30.360Z,16.73
2022-11-24T05:04:58.547Z,16.90
2022-11-24T05:07:26.585Z,16.30
2022-11-24T05:10:12.739Z,17.63
2022-11-24T05:12:48.444Z,16.95
2022-11-24T05:15:40.142Z,18.85
2022-11-24T05:18:29.660Z,18.08
2022-11-24T05:21:00.533Z,14.38
2022-11-24T05:23:29.317Z,13.13
2022-11-24T05:26:04.017Z,16.23
2022-11-24T05:28:32.544Z,8.68
2022-11-24T05:31:04.430Z,10.73
2022-11-24T05:33:33.773Z,13.57
2022-11-24T05:36:03.108Z,15.52
2022-11-24T05:38:31.543Z,11.95
2022-11-24T05:41:04.714Z,14.98
2022-11-24T05:43:32.588Z,10.75
2022-11-24T05:46:02.745Z,9.85
2022-11-24T05:48:33.390Z,13.75
2022-11-24T05:51:04.171Z,10.05
2022-11-24T05:53:38.518Z,9.40
2022-11-24T05:56:12.368Z,9.30
2022-11-24T05:59:05.364Z,8.75
2022-11-24T06:01:43.219Z,9.43
2022-11-24T06:04:28.051Z,11.27
2022-11-24T06:42:07.179Z,9.85
2022-11-24T06:48:56.035Z,4.72
2022-11-24T06:51:44.537Z,10.10
2022-11-24T06:54:21.903Z,9.75
2022-11-24T06:57:18.321Z,11.15
2022-11-24T07:00:21.982Z,10.30
2022-11-24T07:03:01.757Z,9.95
2022-11-24T07:08:44.345Z,10.50
2022-11-24T07:11:24.702Z,10.13
2022-11-24T07:14:13.666Z,14.07
2022-11-24T07:17:03.001Z,8.88
2022-11-24T07:19:52.940Z,11.73
2022-11-24T07:22:47.378Z,12.55
2022-11-24T07:25:37.200Z,14.13
2022-11-24T08:28:07.896Z,7.82
2022-11-24T09:38:29.487Z,8.10
2022-11-24T09:41:22.061Z,8.52
2022-11-24T09:44:23.502Z,6.45
2022-11-24T09:47:51.850Z,6.97
2022-11-24T09:50:51.911Z,5.65
2022-11-24T09:54:01.395Z,8.32
2022-11-24T09:56:56.939Z,9.60
2022-11-24T09:59:27.870Z,6.68
2022-11-24T10:02:26.651Z,10.48
2022-11-24T10:05:17.199Z,8.20
2022-11-24T10:08:31.036Z,8.75
2022-11-24T10:11:01.131Z,6.03
2022-11-24T10:14:08.036Z,6.78
2022-11-24T10:17:09.700Z,5.93
2022-11-24T10:20:18.974Z,6.95
2022-11-24T10:23:32.659Z,8.15
2022-11-24T10:26:20.157Z,7.75
2022-11-24T10:29:39.893Z,9.20
2022-11-24T10:31:57.355Z,6.22
2022-11-24T10:34:55.287Z,5.90
2022-11-24T10:37:58.210Z,6.60
2022-11-24T10:40:56.881Z,10.32
2022-11-24T10:43:47.953Z,8.05
2022-11-24T10:47:01.572Z,9.32
2022-11-24T10:49:37.449Z,6.78
2022-11-24T10:52:54.172Z,9.15
2022-11-24T10:55:36.838Z,9.35
2022-11-24T10:58:54.905Z,8.70
2022-11-24T11:01:17.409Z,10.55
2022-11-24T11:04:18.429Z,7.10
2022-11-24T11:07:08.887Z,9.10
2022-11-24T11:09:57.450Z,9.32
2022-11-24T11:12:43.814Z,9.43
2022-11-24T11:15:53.716Z,11.20
2022-11-24T11:18:51.412Z,6.05
2022-11-24T11:21:57.851Z,6.32
2022-11-24T11:24:41.110Z,9.10
2022-11-24T11:27:47.424Z,10.43
2022-11-24T11:31:20.659Z,9.07
2022-11-24T11:36:38.552Z,7.28
2022-11-24T11:39:17.166Z,7.47
2022-11-24T11:42:37.833Z,7.82
2022-11-24T11:45:40.468Z,7.25
2022-11-24T11:48:25.788Z,11.02
2022-11-24T11:51:31.261Z,6.70
2022-11-24T11:54:21.666Z,8.35
2022-11-24T11:57:21.137Z,9.18
2022-11-24T12:00:32.361Z,9.52
2022-11-24T12:03:57.602Z,5.03
2022-11-24T12:06:37.786Z,7.95
2022-11-24T12:09:57.444Z,10.63
2022-11-24T12:13:10.137Z,9.77
2022-11-24T12:16:13.819Z,10.25
2022-11-24T12:19:20.908Z,12.63
2022-11-24T12:22:10.220Z,14.65
2022-11-24T12:25:24.195Z,10.82
2022-11-24T12:28:13.644Z,11.50
2022-11-24T12:31:26.724Z,11.50
2022-11-24T12:35:08.439Z,8.02
2022-11-24T12:38:25.702Z,9.10
2022-11-24T13:57:36.343Z,15.48
2022-11-24T14:01:12.443Z,17.77
2022-11-24T14:04:35.509Z,18.15
2022-11-24T14:07:15.637Z,29.83
2022-11-24T14:10:05.674Z,57.13
2022-11-24T14:13:16.821Z,44.33
2022-11-24T14:16:19.435Z,50.95
2022-11-24T14:20:16.371Z,37.70
2022-11-24T14:40:55.721Z,24.42
2022-11-24T14:44:06.598Z,29.70
2022-11-24T15:00:55.322Z,73.00
2022-11-24T15:05:01.581Z,78.78
2022-11-24T15:08:03.438Z,60.50
2022-11-24T15:11:05.293Z,40.60
2022-11-24T15:13:58.615Z,39.25
2022-11-24T15:16:49.652Z,39.10
2022-11-24T15:19:42.259Z,32.58
2022-11-24T15:22:43.100Z,38.92
2022-11-24T15:25:35.045Z,33.25
2022-11-24T15:28:30.075Z,36.33
2022-11-24T15:31:19.020Z,67.22
2022-11-24T15:34:10.674Z,84.60
2022-11-24T15:37:02.029Z,69.82
2022-11-24T15:40:04.871Z,58.33
2022-11-24T15:43:15.719Z,40.67
2022-11-24T15:46:17.020Z,36.55
2022-11-24T15:49:45.645Z,28.20
2022-11-24T15:52:32.197Z,26.45
2022-11-24T15:55:48.316Z,31.00
2022-11-24T15:58:37.643Z,27.00
2022-11-24T16:01:30.898Z,16.55
2022-11-24T16:04:28.733Z,20.17
2022-11-24T16:07:40.127Z,37.63
2022-11-24T16:10:37.433Z,61.38
2022-11-24T16:13:47.011Z,60.40
2022-11-24T16:16:46.436Z,85.60
2022-11-24T16:19:44.888Z,42.13
2022-11-24T16:22:55.819Z,43.35
2022-11-24T16:26:10.309Z,36.83
2022-11-24T16:29:05.387Z,42.30
2022-11-24T16:32:33.977Z,60.88
2022-11-24T16:35:35.372Z,44.13
2022-11-24T16:38:41.063Z,65.63
2022-11-24T16:41:47.325Z,51.05
2022-11-24T16:44:42.326Z,22.33
2022-11-24T16:47:35.064Z,22.05
2022-11-24T16:50:25.753Z,18.08
2022-11-24T16:53:21.456Z,27.40
2022-11-24T16:56:09.063Z,35.10
2022-11-24T16:59:01.456Z,39.50
2022-11-24T17:01:53.949Z,49.30
2022-11-24T17:04:46.681Z,46.58
2022-11-24T17:07:54.128Z,30.88
2022-11-24T17:10:54.193Z,159.63
2022-11-24T17:14:04.236Z,73.90
2022-11-24T17:17:00.858Z,90.20
2022-11-24T17:20:27.936Z,69.55
2022-11-24T17:23:38.370Z,42.83
2022-11-24T17:26:36.273Z,30.75
2022-11-24T17:29:42.090Z,29.02
2022-11-24T17:32:39.715Z,37.42
2022-11-24T17:35:38.205Z,34.28
2022-11-24T17:38:37.182Z,23.05
2022-11-24T17:42:08.857Z,24.50
2022-11-24T17:45:27.208Z,29.20
2022-11-24T17:52:07.755Z,35.00
2022-11-24T17:55:21.810Z,26.95
2022-11-24T17:58:24.102Z,15.13
2022-11-24T18:01:15.522Z,17.50
2022-11-24T18:04:07.406Z,18.52
2022-11-24T18:07:03.594Z,17.55
2022-11-24T18:09:55.580Z,24.20
2022-11-24T18:12:36.119Z,23.42
2022-11-24T18:15:07.991Z,18.50
2022-11-24T18:17:41.293Z,22.45
2022-11-24T18:20:37.146Z,19.60
2022-11-24T18:23:33.327Z,16.55
2022-11-24T18:26:10.221Z,15.43
2022-11-24T18:30:08.244Z,25.08
2022-11-24T18:58:16.128Z,18.58
2022-11-24T19:01:26.339Z,20.45
2022-11-24T19:04:26.710Z,19.58
2022-11-24T19:07:05.607Z,24.83
2022-11-24T19:10:06.820Z,21.52
2022-11-24T19:13:00.302Z,19.65
2022-11-24T19:15:37.849Z,26.52
2022-11-24T19:18:54.476Z,21.23
2022-11-24T19:30:13.880Z,28.05
2022-11-24T19:37:31.471Z,32.05
2022-11-24T19:40:45.612Z,29.48
2022-11-24T19:43:23.998Z,24.63
2022-11-24T19:46:11.547Z,26.50
2022-11-24T19:49:23.143Z,28.35
2022-11-24T19:52:15.365Z,22.80
2022-11-24T19:58:30.693Z,19.50
2022-11-24T20:01:58.633Z,24.90
2022-11-24T20:05:32.383Z,21.58
2022-11-24T20:08:16.319Z,34.85
2022-11-24T20:10:46.375Z,34.45
2022-11-24T20:13:18.336Z,32.85
2022-11-24T20:15:48.995Z,38.95
2022-11-24T20:18:41.575Z,31.17
2022-11-24T20:21:38.415Z,26.77
2022-11-24T20:24:41.036Z,20.95
2022-11-24T20:27:11.979Z,18.23
2022-11-24T20:31:23.222Z,17.73
2022-11-24T20:34:12.623Z,18.77
2022-11-24T20:36:57.801Z,16.13
2022-11-24T20:39:55.925Z,17.42
2022-11-24T20:42:32.160Z,12.65
2022-11-24T20:45:13.516Z,12.85
2022-11-24T20:47:43.009Z,15.10
2022-11-24T20:50:24.162Z,16.67
2022-11-24T20:53:11.007Z,17.95
2022-11-24T20:57:00.626Z,19.35
2022-11-24T21:01:09.363Z,19.77
2022-11-24T21:02:58.971Z,22.83
2022-11-24T21:05:37.101Z,25.13
2022-11-24T21:08:27.049Z,19.52
2022-11-24T21:11:14.855Z,22.80
2022-11-24T21:15:10.121Z,18.33
2022-11-24T21:19:33.844Z,17.30
2022-11-24T21:23:05.789Z,14.88
2022-11-24T21:26:27.886Z,15.57
2022-11-24T21:29:21.310Z,17.52
2022-11-24T21:32:09.836Z,18.17
2022-11-24T21:35:00.230Z,16.88
2022-11-24T21:37:34.796Z,21.23
2022-11-24T21:40:37.875Z,16.88
2022-11-24T21:43:30.152Z,25.55
2022-11-24T21:46:18.865Z,35.83
2022-11-24T21:48:59.715Z,30.40
2022-11-24T21:51:49.177Z,18.35
2022-11-24T21:54:38.510Z,18.85
2022-11-24T21:57:29.380Z,17.30
2022-11-24T22:00:19.470Z,17.73
2022-11-24T22:02:50.394Z,15.43
2022-11-24T22:05:33.285Z,14.18
2022-11-24T22:08:22.350Z,16.23
2022-11-24T22:10:56.602Z,19.35
2022-11-24T22:13:45.631Z,19.67
2022-11-24T22:16:33.785Z,16.58
2022-11-24T22:19:22.123Z,19.30
2022-11-24T22:24:47.941Z,15.48
2022-11-24T22:27:17.108Z,16.80
2022-11-24T22:30:07.146Z,16.13
2022-11-24T22:32:55.208Z,14.93
2022-11-24T22:35:43.748Z,18.05
2022-11-24T22:38:33.178Z,15.93
2022-11-24T22:41:21.810Z,19.77
2022-11-24T22:44:14.800Z,15.85
2022-11-24T22:47:07.600Z,11.77
2022-11-24T22:49:58.468Z,14.93
2022-11-24T22:52:46.866Z,11.07
2022-11-24T22:55:22.852Z,12.98
2022-11-24T22:57:57.343Z,21.95
2022-11-24T23:00:26.779Z,19.73
2022-11-24T23:02:55.494Z,22.20
2022-11-24T23:05:44.645Z,18.10
2022-11-24T23:08:34.757Z,16.45
2022-11-24T23:11:37.463Z,14.13
2022-11-24T23:14:21.603Z,19.17
2022-11-24T23:16:50.333Z,14.45
2022-11-24T23:19:21.076Z,13.20
2022-11-24T23:22:09.804Z,9.80
2022-11-24T23:24:56.743Z,13.75
2022-11-24T23:27:26.016Z,12.48
2022-11-24T23:29:55.477Z,13.63
2022-11-24T23:32:43.955Z,14.77
2022-11-24T23:35:33.795Z,13.85
2022-11-24T23:38:09.286Z,13.98
2022-11-24T23:40:50.564Z,14.27
2022-11-24T23:43:23.837Z,14.88
2022-11-24T23:46:17.669Z,13.05
2022-11-24T23:48:54.052Z,11.05
2022-11-24T23:51:42.598Z,12.48
2022-11-24T23:54:31.145Z,16.52
2022-11-24T23:57:19.488Z,17.17
2022-11-24T23:59:53.183Z,11.27
